Williamson, Iowa
Current Conditions -  °F | °C
As of 11:55 AM on Friday 21 Nov 2014 (Local Time) from KCNC Reporting Station
Clear Clear  
Wind Chill: -4°   Ceiling: Unl
Heat Index:   Visibility: 10mi
Dew Point: -7°   Wind: 13mph
Humidity: 56%   Direction: 140°SE
Pressure: 30.23"   Gusts: NA
Location:  41.09°N, 93.25°W
Report Text: KCNC 211755Z AUTO 14011KT 10SM CLR 01/M07 A3023 RMK AO2
Loading
Personal Weather Stations






























Interactive Weather Map New forecast layout! Learn more

10-Day Weather Forecast

Advertisements
Track Severe Weather on mobile